Time;durP1;ratioP1;P1;durP2;ratioP2;P2;SDS_P1;SDS_P2;PMS_P1;PMS_P2;Temp;Humidity;BMP_temperature;BMP_pressure;BME280_temperature;BME280_humidity;BME280_pressure;Samples;Min_cycle;Max_cycle;Signal;HPM_P1;HPM_P2
2023/01/15 01:58:10;;;;;;;55.60;14.90;;;;;;;-0.99;87.30;101653.99;103999;1283;612407;-95
2023/01/15 02:00:39;;;;;;;34.00;13.00;;;;;;;-0.78;86.97;101653.22;105746;1265;138524;-93
2023/01/15 02:03:06;;;;;;;29.10;11.90;;;;;;;-0.66;87.35;101647.60;106416;1266;60051;-94
2023/01/15 02:05:46;;;;;;;29.00;12.30;;;;;;;-0.54;87.25;101646.59;107752;1257;73045;-93
2023/01/15 02:08:14;;;;;;;36.60;12.30;;;;;;;-0.43;86.92;101649.88;108025;1261;63966;-93
2023/01/15 02:10:41;;;;;;;31.80;12.10;;;;;;;-0.38;85.99;101645.59;109393;1257;72480;-93
2023/01/15 02:13:15;;;;;;;32.70;11.80;;;;;;;-0.41;85.55;101647.16;109107;1260;58318;-95
2023/01/15 02:20:12;;;;;;;29.90;12.20;;;;;;;-0.54;84.70;101646.42;105564;1268;73833;-93
2023/01/15 02:24:47;;;;;;;28.60;10.20;;;;;;;-0.55;85.31;101642.64;105266;1279;63354;-95
2023/01/15 02:28:53;;;;;;;25.20;10.30;;;;;;;-0.51;85.05;101635.77;103650;1289;72707;-93
2023/01/15 02:32:13;;;;;;;27.60;10.20;;;;;;;-0.58;84.79;101632.34;104587;1289;60465;-95
2023/01/15 02:34:51;;;;;;;34.50;14.90;;;;;;;-0.67;84.31;101639.36;103213;1293;62015;-94
2023/01/15 02:37:37;;;;;;;28.40;11.90;;;;;;;-0.76;84.28;101640.53;104445;1292;74686;-93
2023/01/15 02:40:21;;;;;;;39.70;13.40;;;;;;;-0.82;84.27;101641.36;103756;1292;65738;-90
2023/01/15 02:42:53;;;;;;;29.00;12.00;;;;;;;-0.85;84.55;101637.92;105335;1295;73197;-91
2023/01/15 02:45:36;;;;;;;26.10;10.60;;;;;;;-0.78;85.09;101639.66;105184;1294;59727;-91
2023/01/15 02:48:10;;;;;;;27.30;13.80;;;;;;;-0.78;84.78;101639.48;103784;1291;59715;-93
2023/01/15 02:50:47;;;;;;;24.00;10.80;;;;;;;-0.76;84.73;101638.30;103844;1292;73028;-95
2023/01/15 02:53:31;;;;;;;19.50;10.60;;;;;;;-0.82;84.67;101630.55;103719;1291;65053;-93
2023/01/15 02:56:03;;;;;;;25.00;12.50;;;;;;;-0.85;84.66;101637.92;103655;1294;74513;-94
2023/01/15 02:58:40;;;;;;;38.90;15.50;;;;;;;-0.89;84.98;101635.33;105281;1289;59616;-91
2023/01/15 03:01:15;;;;;;;32.00;13.30;;;;;;;-0.89;85.12;101628.30;105698;1285;61456;-93
2023/01/15 03:04:13;;;;;;;29.10;14.10;;;;;;;-0.82;85.21;101631.77;103866;1291;73918;-92
2023/01/15 03:07:06;;;;;;;29.10;13.50;;;;;;;-0.78;84.79;101629.86;106111;1273;64605;-93
2023/01/15 03:09:36;;;;;;;32.00;13.40;;;;;;;-0.77;84.98;101629.20;107321;1267;72233;-93
2023/01/15 03:12:09;;;;;;;29.00;11.40;;;;;;;-0.76;85.12;101627.13;106693;1273;62203;-92
2023/01/15 03:18:21;;;;;;;38.00;12.10;;;;;;;-0.60;84.97;101626.48;107990;1267;72996;-91
2023/01/15 03:20:51;;;;;;;33.90;12.40;;;;;;;-0.61;84.51;101630.09;108721;1267;63517;-91
2023/01/15 03:23:21;;;;;;;34.70;13.60;;;;;;;-0.69;84.28;101631.11;108718;1267;73092;-93
2023/01/15 03:25:48;;;;;;;32.00;12.20;;;;;;;-0.73;84.10;101638.81;108610;1267;58328;-91
2023/01/15 03:28:23;;;;;;;39.80;13.40;;;;;;;-0.78;84.23;101640.34;108594;1268;60995;-92
2023/01/15 03:30:53;;;;;;;24.50;12.10;;;;;;;-0.82;84.15;101637.77;108716;1267;73639;-95
2023/01/15 03:33:20;;;;;;;32.20;12.30;;;;;;;-0.84;84.29;101629.33;108705;1267;64338;-94
2023/01/15 03:36:09;;;;;;;30.30;12.30;;;;;;;-0.79;84.30;101641.70;109041;1263;72667;-94
2023/01/15 03:38:49;;;;;;;29.10;12.40;;;;;;;-0.81;84.37;101644.98;109167;1259;59648;-94
2023/01/15 03:42:10;;;;;;;31.50;12.00;;;;;;;-0.82;84.38;101645.14;109049;1260;60312;-93
2023/01/15 03:44:56;;;;;;;29.10;14.30;;;;;;;-0.86;84.39;101637.92;108999;1260;72981;-92
2023/01/15 03:47:41;;;;;;;24.90;11.50;;;;;;;-0.89;84.75;101640.30;109092;1260;63679;-94
2023/01/15 03:50:40;;;;;;;39.20;13.20;;;;;;;-0.90;84.64;101635.16;108886;1260;72575;-93
2023/01/15 03:53:20;;;;;;;38.30;12.70;;;;;;;-0.89;84.80;101634.83;105809;1262;59764;-92
2023/01/15 03:56:33;;;;;;;31.00;13.00;;;;;;;-0.82;84.92;101639.30;105912;1260;61368;-92
2023/01/15 03:59:09;;;;;;;39.20;13.60;;;;;;;-0.76;84.91;101632.63;107787;1260;73574;-91
2023/01/15 04:01:50;;;;;;;27.30;13.40;;;;;;;-0.73;84.61;101636.59;108256;1260;63654;-93
2023/01/15 04:04:20;;;;;;;31.70;12.20;;;;;;;-0.72;84.64;101640.53;107765;1260;72683;-93
2023/01/15 04:07:09;;;;;;;36.00;13.60;;;;;;;-0.70;84.36;101648.61;106518;1261;62293;-93
2023/01/15 04:09:38;;;;;;;27.80;11.60;;;;;;;-0.73;84.38;101645.02;105715;1262;61099;-92
2023/01/15 04:12:07;;;;;;;30.90;12.60;;;;;;;-0.73;84.48;101645.52;105763;1269;72959;-91
2023/01/15 04:14:40;;;;;;;31.20;12.60;;;;;;;-0.75;84.51;101644.13;105887;1265;65418;-93
2023/01/15 04:17:12;;;;;;;28.90;12.50;;;;;;;-0.76;84.67;101651.52;106159;1260;72894;-92
2023/01/15 04:19:39;;;;;;;25.60;13.10;;;;;;;-0.79;84.67;101648.23;106175;1262;60756;-92
2023/01/15 04:22:10;;;;;;;38.50;15.30;;;;;;;-0.81;84.71;101651.50;107440;1262;60025;-91
2023/01/15 04:24:37;;;;;;;33.70;13.90;;;;;;;-0.81;84.79;101648.41;107885;1260;74530;-91
2023/01/15 04:27:04;;;;;;;34.10;14.80;;;;;;;-0.81;84.76;101645.32;108695;1260;63613;-89
2023/01/15 04:29:32;;;;;;;38.60;15.50;;;;;;;-0.81;85.02;101645.67;109031;1260;73490;-93
2023/01/15 04:32:00;;;;;;;38.20;14.40;;;;;;;-0.75;84.94;101646.88;109012;1261;59390;-92
2023/01/15 04:34:28;;;;;;;44.40;16.00;;;;;;;-0.67;84.71;101646.05;109071;1260;60250;-91
2023/01/15 04:36:58;;;;;;;40.50;14.20;;;;;;;-0.64;84.50;101649.33;107668;1264;73437;-89
2023/01/15 04:39:25;;;;;;;34.50;14.70;;;;;;;-0.61;84.47;101648.83;106492;1262;63821;-90
2023/01/15 04:45:02;;;;;;;35.10;13.70;;;;;;;-0.48;85.02;101653.30;107991;1260;62350;-95
2023/01/15 04:47:31;;;;;;;31.90;14.10;;;;;;;-0.39;84.40;101654.18;108056;1261;60100;-93
2023/01/15 04:49:59;;;;;;;34.40;13.70;;;;;;;-0.38;84.04;101651.77;108888;1260;74031;-92
2023/01/15 04:52:28;;;;;;;32.20;14.20;;;;;;;-0.38;83.98;101654.02;109001;1260;63599;-91
2023/01/15 04:54:56;;;;;;;35.00;14.30;;;;;;;-0.43;83.76;101653.84;108905;1260;72661;-92
2023/01/15 04:57:25;;;;;;;31.90;15.70;;;;;;;-0.50;83.63;101654.16;106506;1263;61074;-93
2023/01/15 04:59:54;;;;;;;37.00;14.60;;;;;;;-0.55;83.56;101650.38;106202;1261;60158;-93
2023/01/15 05:02:22;;;;;;;29.20;13.10;;;;;;;-0.58;83.69;101663.59;106032;1262;72894;-92
2023/01/15 05:04:50;;;;;;;25.80;13.10;;;;;;;-0.58;83.52;101667.02;106643;1260;63652;-92
2023/01/15 05:07:21;;;;;;;30.00;13.00;;;;;;;-0.64;83.56;101665.80;107050;1261;72475;-93
2023/01/15 05:09:50;;;;;;;36.70;12.80;;;;;;;-0.65;83.92;101661.84;107612;1260;62144;-91
2023/01/15 05:12:18;;;;;;;30.50;14.10;;;;;;;-0.67;84.17;101664.42;107102;1261;59336;-94
2023/01/15 05:14:46;;;;;;;30.10;12.30;;;;;;;-0.65;84.18;101661.86;107040;1260;73767;-93
2023/01/15 05:17:13;;;;;;;33.70;13.60;;;;;;;-0.62;84.03;101656.89;108371;1260;62668;-93
2023/01/15 05:19:41;;;;;;;35.80;15.00;;;;;;;-0.61;83.88;101662.38;109000;1261;72430;-91
2023/01/15 05:22:10;;;;;;;35.80;14.00;;;;;;;-0.61;83.87;101664.45;109009;1260;59769;-93
2023/01/15 05:24:37;;;;;;;32.10;12.00;;;;;;;-0.59;83.68;101659.64;107589;1260;60239;-93
2023/01/15 05:27:05;;;;;;;35.70;13.40;;;;;;;-0.56;83.60;101659.46;108508;1260;74105;-93
2023/01/15 05:29:33;;;;;;;30.90;11.90;;;;;;;-0.61;83.41;101659.64;109038;1260;63584;-93
2023/01/15 05:32:01;;;;;;;25.10;12.70;;;;;;;-0.63;83.66;101655.85;108970;1261;72459;-94
2023/01/15 05:34:30;;;;;;;33.60;10.50;;;;;;;-0.61;83.66;101657.23;105619;1262;62207;-92
2023/01/15 05:36:57;;;;;;;30.20;12.60;;;;;;;-0.59;83.96;101654.31;105700;1262;60342;-92
2023/01/15 05:39:25;;;;;;;34.80;12.20;;;;;;;-0.57;83.94;101662.21;106307;1266;72569;-90
2023/01/15 05:41:53;;;;;;;33.30;12.90;;;;;;;-0.58;83.52;101659.81;105511;1267;62872;-93
2023/01/15 05:44:26;;;;;;;31.50;13.10;;;;;;;-0.60;83.64;101644.70;105503;1263;73795;-94
2023/01/15 05:46:59;;;;;;;28.10;12.20;;;;;;;-0.61;83.96;101647.61;105497;1262;60595;-93
2023/01/15 05:49:30;;;;;;;25.40;13.20;;;;;;;-0.62;83.65;101656.20;105656;1261;61526;-94
2023/01/15 05:51:59;;;;;;;26.80;12.10;;;;;;;-0.60;83.69;101650.36;105674;1262;72882;-93
2023/01/15 05:54:31;;;;;;;30.10;11.70;;;;;;;-0.60;83.68;101653.63;105457;1262;63790;-93
2023/01/15 05:57:00;;;;;;;39.60;15.10;;;;;;;-0.60;83.61;101649.51;105592;1261;73085;-92
2023/01/15 05:59:30;;;;;;;35.10;11.70;;;;;;;-0.63;83.52;101658.95;106530;1261;61132;-93
2023/01/15 06:01:59;;;;;;;28.70;11.60;;;;;;;-0.65;83.67;101661.16;107467;1262;61066;-92
2023/01/15 06:04:40;;;;;;;30.70;12.40;;;;;;;-0.68;83.92;101654.30;106725;1265;73440;-94
2023/01/15 06:07:38;;;;;;;24.70;11.00;;;;;;;-0.68;83.79;101662.52;107319;1268;62563;-93
2023/01/15 06:10:18;;;;;;;29.00;11.20;;;;;;;-0.68;84.01;101670.77;107520;1271;72831;-94
2023/01/15 06:12:50;;;;;;;39.20;15.50;;;;;;;-0.66;83.93;101666.15;107680;1267;59596;-91
2023/01/15 06:15:24;;;;;;;21.00;11.10;;;;;;;-0.66;84.03;101666.32;108155;1271;60236;-93
2023/01/15 06:18:14;;;;;;;36.50;13.30;;;;;;;-0.66;83.84;101675.08;108087;1270;72557;-94
2023/01/15 06:21:09;;;;;;;35.00;13.40;;;;;;;-0.62;83.97;101665.29;106686;1270;62837;-95
2023/01/15 06:23:39;;;;;;;28.10;10.00;;;;;;;-0.54;84.05;101665.83;106632;1271;73590;-93
2023/01/15 06:28:41;;;;;;;29.20;12.50;;;;;;;-0.46;84.00;101670.15;107017;1282;613004;-95
2023/01/15 06:31:29;;;;;;;26.20;11.80;;;;;;;-0.42;83.97;101667.75;109143;1257;60412;-94
2023/01/15 06:34:08;;;;;;;40.90;14.60;;;;;;;-0.38;83.83;101667.42;109288;1256;60653;-94
2023/01/15 06:37:16;;;;;;;29.90;12.70;;;;;;;-0.31;83.38;101666.59;109367;1256;72340;-91
2023/01/15 06:40:22;;;;;;;38.10;12.90;;;;;;;-0.31;83.08;101674.65;109277;1256;65398;-93
2023/01/15 06:50:30;;;;;;;32.40;13.40;;;;;;;-0.33;82.78;101668.29;109081;1254;72532;-96
2023/01/15 06:53:28;;;;;;;37.20;15.40;;;;;;;-0.33;83.28;101659.70;108100;1260;63515;-94
2023/01/15 06:56:27;;;;;;;37.30;14.70;;;;;;;-0.33;83.03;101658.50;108559;1259;74107;-93
2023/01/15 06:59:26;;;;;;;39.80;14.50;;;;;;;-0.30;83.19;101654.55;108395;1260;59911;-95
2023/01/15 10:52:41;;;;;;;29.90;17.50;;;;;;;-0.05;89.62;101535.27;105824;1291;611932;-90
2023/01/15 10:55:24;;;;;;;34.80;18.40;;;;;;;0.27;89.21;101538.83;100770;1264;10132960;-91
2023/01/15 10:57:58;;;;;;;33.20;18.60;;;;;;;0.39;88.56;101537.59;108635;1264;73238;-93
2023/01/15 11:00:39;;;;;;;58.40;32.70;;;;;;;0.46;87.95;101537.91;108841;1261;63870;-90
2023/01/15 11:03:16;;;;;;;33.90;18.50;;;;;;;0.47;87.40;101534.47;108876;1261;72446;-91
2023/01/15 11:05:45;;;;;;;37.30;20.10;;;;;;;0.46;87.34;101531.55;109237;1257;59372;-92
2023/01/15 11:08:21;;;;;;;32.00;20.50;;;;;;;0.50;87.07;101529.46;109217;1258;60012;-91
2023/01/15 11:20:49;;;;;;;35.60;18.50;;;;;;;0.70;85.65;101515.97;108765;1257;59366;-92
2023/01/15 11:23:19;;;;;;;39.90;19.90;;;;;;;0.66;85.40;101512.55;108667;1257;60182;-92
2023/01/15 11:25:54;;;;;;;37.40;20.00;;;;;;;0.71;85.62;101514.08;109285;1253;73825;-92
2023/01/15 11:28:35;;;;;;;36.20;20.00;;;;;;;0.75;85.11;101513.02;109626;1253;64235;-94
2023/01/15 11:31:10;;;;;;;37.60;20.80;;;;;;;0.75;84.67;101515.95;109702;1253;72631;-93
2023/01/15 11:33:38;;;;;;;44.50;22.40;;;;;;;0.74;84.67;101514.91;109585;1253;59753;-91
2023/01/15 11:36:28;;;;;;;38.80;23.70;;;;;;;0.73;84.36;101510.27;109766;1253;60351;-93
2023/01/15 11:39:04;;;;;;;40.60;22.80;;;;;;;0.73;84.14;101511.82;109713;1253;72839;-90
2023/01/15 11:53:04;;;;;;;32.50;19.50;;;;;;;0.85;83.90;101504.19;107753;1260;72974;-91
2023/01/15 11:55:31;;;;;;;36.50;18.90;;;;;;;0.84;83.32;101501.27;108273;1263;65101;-92
2023/01/15 11:58:03;;;;;;;36.40;20.90;;;;;;;0.79;83.10;101504.90;107832;1259;73296;-92
2023/01/15 12:00:33;;;;;;;37.20;20.10;;;;;;;0.81;82.77;101504.73;107650;1260;61081;-92
2023/01/15 12:03:12;;;;;;;32.80;19.00;;;;;;;0.80;82.80;101506.27;107238;1260;62179;-91
2023/01/15 12:06:12;;;;;;;34.70;19.30;;;;;;;0.82;82.87;101502.31;106961;1260;74821;-93
2023/01/15 12:08:45;;;;;;;43.00;20.60;;;;;;;0.82;82.79;101507.98;107839;1265;65586;-92
2023/01/15 12:11:48;;;;;;;35.50;20.30;;;;;;;0.85;82.82;101503.85;108010;1260;72776;-94
2023/01/15 12:14:54;;;;;;;40.40;20.40;;;;;;;0.85;82.41;101501.95;107644;1265;59765;-91
2023/01/15 12:18:16;;;;;;;40.60;21.70;;;;;;;0.77;82.24;101503.54;109086;1260;61755;-92
2023/01/15 12:21:11;;;;;;;37.90;20.10;;;;;;;0.70;82.15;101509.25;109356;1253;71981;-92
2023/01/15 12:24:04;;;;;;;34.80;20.40;;;;;;;0.67;82.19;101509.09;108272;1253;63579;-93
2023/01/15 12:27:04;;;;;;;35.30;19.30;;;;;;;0.62;82.21;101510.67;108407;1253;72597;-93
2023/01/15 12:33:31;;;;;;;32.10;18.70;;;;;;;0.50;82.52;101512.27;107034;1273;59306;-92
2023/01/15 12:37:04;;;;;;;40.30;20.80;;;;;;;0.43;82.95;101511.09;105695;1283;73123;-92
2023/01/15 12:39:47;;;;;;;37.10;19.80;;;;;;;0.39;83.20;101509.55;105701;1283;63869;-91
2023/01/15 12:45:15;;;;;;;44.30;21.60;;;;;;;0.27;83.40;101509.59;106065;1282;60113;-91
2023/01/15 12:48:28;;;;;;;37.40;21.20;;;;;;;0.27;83.76;101506.50;107148;1276;60933;-90
2023/01/15 13:07:24;;;;;;;41.40;22.00;;;;;;;0.83;82.84;101504.71;106626;1283;612202;-93
2023/01/15 13:15:19;;;;;;;43.70;21.50;;;;;;;0.80;82.11;101510.23;108457;1269;63130;-92
2023/01/15 13:23:08;;;;;;;39.40;19.30;;;;;;;0.66;81.80;101508.42;108990;1263;61269;-94
2023/01/15 13:48:54;;;;;;;38.00;20.30;;;;;;;0.24;82.67;101499.98;106972;1286;61513;-91
2023/01/15 13:53:05;;;;;;;41.70;22.50;;;;;;;0.27;83.08;101503.05;107464;1279;73862;-92
2023/01/15 14:01:33;;;;;;;41.10;19.50;;;;;;;0.31;83.00;101502.88;107709;1270;74136;31
2023/01/15 14:04:46;;;;;;;44.50;19.00;;;;;;;0.26;82.77;101510.45;106915;1279;59544;-93
2023/01/15 14:47:13;;;;;;;45.20;19.80;;;;;;;-0.11;83.57;101507.63;106844;1285;59064;-92
2023/01/15 14:50:23;;;;;;;39.20;18.60;;;;;;;-0.11;83.96;101514.50;106542;1285;72440;-92
2023/01/15 14:54:12;;;;;;;;;;;;;;;;;;;;;
2023/01/15 15:00:04;;;;;;;41.90;21.90;;;;;;;0.03;84.25;101506.90;106829;1285;58255;-91
2023/01/15 15:03:30;;;;;;;53.00;23.70;;;;;;;0.10;83.89;101509.30;106420;1286;59522;-94
2023/01/15 15:06:18;;;;;;;;;;;;;;;0.12;83.68;101506.55;106164;1285;74534;-94
2023/01/15 15:09:29;;;;;;;45.50;19.80;;;;;;;0.12;83.70;101505.86;106756;1285;63002;-94
2023/01/15 15:12:45;;;;;;;38.90;19.40;;;;;;;0.11;83.13;101508.95;106551;1287;71572;-92
2023/01/15 15:15:26;;;;;;;47.60;20.90;;;;;;;0.09;83.18;101511.53;106500;1283;61113;-93
2023/01/15 15:18:10;;;;;;;39.70;21.80;;;;;;;0.05;83.14;101510.35;106571;1282;60372;-92
2023/01/15 15:21:20;;;;;;;52.70;23.10;;;;;;;0.03;83.53;101512.58;106624;1284;71855;-92
2023/01/15 15:29:13;;;;;;;49.50;23.30;;;;;;;0.09;83.83;101513.10;107224;1274;74138;-87
2023/01/15 15:50:46;;;;;;;;;;;;;;;-0.12;83.92;101520.34;106889;1279;72694;-92
2023/01/15 15:54:38;;;;;;;53.50;22.60;;;;;;;-0.02;83.94;101520.50;107307;1279;58362;-92
2023/01/15 15:58:58;;;;;;;50.10;22.90;;;;;;;0.11;83.75;101518.06;106966;1279;59870;-94
2023/01/15 16:02:43;;;;;;;40.90;21.30;;;;;;;0.05;83.36;101517.39;106460;1285;75181;-89
2023/01/15 16:06:05;;;;;;;44.40;22.70;;;;;;;0.02;83.19;101526.17;106062;1285;63961;-93
2023/01/15 20:19:04;;;;;;;69.70;28.60;;;;;;;-0.45;87.63;101413.85;106449;1287;612095;-93
2023/01/15 20:23:07;;;;;;;;;;;;;;;;;;;;;
2023/01/15 20:27:39;;;;;;;69.60;28.00;;;;;;;-0.03;86.51;101407.75;107370;1274;71448;-92
2023/01/15 20:51:40;;;;;;;47.40;24.70;;;;;;;0.52;83.86;101406.64;106512;1292;63155;-91
2023/01/15 20:54:26;;;;;;;75.10;31.20;;;;;;;0.49;83.11;101408.19;105786;1286;72533;-93
2023/01/15 20:56:59;;;;;;;56.50;28.40;;;;;;;0.46;82.83;101405.45;106367;1287;61981;-95
2023/01/15 20:59:59;;;;;;;62.90;26.00;;;;;;;0.41;82.67;101407.04;107013;1255;60080;31
2023/01/15 21:02:50;;;;;;;60.20;26.70;;;;;;;0.33;82.71;101408.45;108877;1262;72530;-95
2023/01/15 21:05:39;;;;;;;64.30;29.80;;;;;;;0.30;82.97;101412.59;109086;1259;62566;-94
2023/01/15 21:08:26;;;;;;;73.00;29.00;;;;;;;0.29;82.91;101413.98;107876;1263;71115;-94
2023/01/15 21:11:00;;;;;;;67.50;34.00;;;;;;;0.30;82.96;101410.53;108207;1262;60636;-93
2023/01/15 21:13:30;;;;;;;74.10;29.20;;;;;;;0.32;82.90;101408.29;108773;1261;59198;-94
2023/01/15 21:16:04;;;;;;;68.00;30.70;;;;;;;0.33;82.64;101407.07;107947;1262;73082;-93
2023/01/15 21:19:10;;;;;;;61.00;29.30;;;;;;;0.32;82.40;101404.48;107951;1262;63868;-93
2023/01/15 21:22:02;;;;;;;55.20;26.10;;;;;;;0.36;82.46;101412.56;109038;1261;74384;-92
2023/01/15 21:24:35;;;;;;;64.20;23.80;;;;;;;0.36;82.41;101410.66;108772;1265;59244;-89
2023/01/15 21:27:10;;;;;;;58.50;24.50;;;;;;;0.34;82.44;101409.66;107170;1266;60346;-94
2023/01/15 21:29:44;;;;;;;64.50;27.30;;;;;;;0.31;82.42;101414.14;106899;1267;71154;-94
2023/01/15 21:32:30;;;;;;;64.40;26.70;;;;;;;0.36;82.81;101415.83;106598;1266;64727;-93
2023/01/15 21:35:09;;;;;;;70.10;28.40;;;;;;;0.42;82.72;101403.25;106700;1267;72020;-93
2023/01/15 21:37:56;;;;;;;70.80;29.30;;;;;;;0.49;82.35;101407.34;106372;1272;59771;-94
2023/01/15 21:40:49;;;;;;;69.20;30.90;;;;;;;0.50;82.15;101409.91;106936;1266;59756;-93
2023/01/15 21:46:17;;;;;;;66.50;26.90;;;;;;;0.48;81.72;101405.61;106684;1263;63589;-95
2023/01/15 21:48:44;;;;;;;62.40;27.80;;;;;;;0.41;81.67;101408.92;106692;1263;73750;-92
2023/01/15 21:51:12;;;;;;;55.10;24.80;;;;;;;0.33;82.15;101411.55;106678;1267;59591;-93
2023/01/15 21:53:47;;;;;;;61.20;28.50;;;;;;;0.30;82.17;101411.56;106484;1269;60124;-93
2023/01/15 21:56:15;;;;;;;54.20;23.20;;;;;;;0.29;82.22;101409.84;106022;1263;74140;-95
2023/01/15 21:58:43;;;;;;;51.80;24.80;;;;;;;0.27;82.06;101410.71;106340;1262;63356;-93
2023/01/15 22:01:32;;;;;;;45.20;23.00;;;;;;;0.23;82.10;101412.64;107527;1261;73834;-94
